createdAt,value
2023-04-21T00:00:45.302Z,100926.94
2023-04-21T00:03:13.201Z,100928.63
2023-04-21T00:05:43.541Z,100923.75
2023-04-21T00:08:11.308Z,100914.06
2023-04-21T00:10:39.052Z,100923.44
2023-04-21T00:13:06.833Z,100913.16
2023-04-21T00:15:34.701Z,100914.94
2023-04-21T00:18:03.767Z,100904.53
2023-04-21T00:20:31.744Z,100905.94
2023-04-21T00:23:01.332Z,100903.75
2023-04-21T00:25:29.065Z,100903.28
2023-04-21T00:27:56.775Z,100888.25
2023-04-21T00:30:24.601Z,100886.41
2023-04-21T00:32:52.409Z,100878.03
2023-04-21T00:35:20.157Z,100884.69
2023-04-21T00:37:47.883Z,100885.31
2023-04-21T00:40:17.015Z,100878.66
2023-04-21T00:42:44.743Z,100869.97
2023-04-21T00:45:14.772Z,100863.06
2023-04-21T00:47:42.526Z,100861.00
2023-04-21T00:50:11.445Z,100861.13
2023-04-21T00:52:40.838Z,100859.28
2023-04-21T00:55:09.486Z,100864.34
2023-04-21T00:57:38.886Z,100866.25
2023-04-21T01:00:08.950Z,100854.94
2023-04-21T01:02:37.939Z,100857.59
2023-04-21T01:05:08.936Z,100846.34
2023-04-21T01:07:36.875Z,100856.31
2023-04-21T01:10:04.955Z,100856.19
2023-04-21T01:12:32.738Z,100859.75
2023-04-21T01:15:01.833Z,100864.41
2023-04-21T01:17:31.311Z,100865.19
2023-04-21T01:19:59.448Z,100839.66
2023-04-21T01:22:29.055Z,100849.22
2023-04-21T01:24:56.840Z,100842.06
2023-04-21T01:27:26.860Z,100854.03
2023-04-21T01:29:54.653Z,100843.19
2023-04-21T01:32:25.273Z,100842.03
2023-04-21T01:34:53.667Z,100832.38
2023-04-21T01:37:23.366Z,100833.41
2023-04-21T01:39:55.717Z,100847.13
2023-04-21T01:42:25.716Z,100844.81
2023-04-21T01:44:54.637Z,100847.38
2023-04-21T01:47:23.109Z,100844.13
2023-04-21T01:49:50.854Z,100849.06
2023-04-21T01:52:18.613Z,100850.59
2023-04-21T01:54:46.388Z,100837.47
2023-04-21T01:57:15.607Z,100829.41
2023-04-21T01:59:43.431Z,100846.50
2023-04-21T02:02:11.253Z,100830.63
2023-04-21T02:04:39.195Z,100827.50
2023-04-21T02:07:07.142Z,100830.88
2023-04-21T02:09:34.893Z,100828.22
2023-04-21T02:12:03.785Z,100829.84
2023-04-21T02:14:32.890Z,100839.97
2023-04-21T02:17:03.052Z,100829.38
2023-04-21T02:19:31.308Z,100831.09
2023-04-21T02:21:59.052Z,100833.16
2023-04-21T02:24:27.051Z,100843.91
2023-04-21T02:26:54.820Z,100837.56
2023-04-21T02:29:22.471Z,100827.69
2023-04-21T02:32:03.091Z,100828.78
2023-04-21T02:34:33.351Z,100856.38
2023-04-21T02:37:01.051Z,100857.78
2023-04-21T02:39:28.812Z,100867.94
2023-04-21T02:41:56.897Z,100853.38
2023-04-21T02:44:24.631Z,100849.47
2023-04-21T02:46:53.880Z,100851.88
2023-04-21T02:49:21.972Z,100854.25
2023-04-21T02:51:49.800Z,100865.72
2023-04-21T02:54:17.493Z,100861.09
2023-04-21T02:56:45.229Z,100862.97
2023-04-21T02:59:16.464Z,100859.53
2023-04-21T03:01:44.604Z,100852.72
2023-04-21T03:04:14.237Z,100848.25
2023-04-21T03:06:41.995Z,100859.69
2023-04-21T03:09:09.925Z,100861.09
2023-04-21T03:11:37.695Z,100869.97
2023-04-21T03:14:05.399Z,100860.72
2023-04-21T03:16:33.286Z,100867.38
2023-04-21T03:19:01.206Z,100868.63
2023-04-21T03:21:31.431Z,100866.84
2023-04-21T03:23:59.220Z,100863.00
2023-04-21T03:26:26.983Z,100864.50
2023-04-21T03:28:54.728Z,100858.06
2023-04-21T03:31:22.504Z,100873.22
2023-04-21T03:33:50.220Z,100874.31
2023-04-21T03:36:18.004Z,100873.53
2023-04-21T03:38:47.140Z,100851.19
2023-04-21T03:41:14.954Z,100862.56
2023-04-21T03:43:43.071Z,100860.84
2023-04-21T03:46:18.751Z,100870.59
2023-04-21T03:48:46.783Z,100876.75
2023-04-21T03:51:14.680Z,100879.28
2023-04-21T03:53:42.555Z,100871.66
2023-04-21T03:56:12.010Z,100873.44
2023-04-21T03:58:39.784Z,100877.09
2023-04-21T04:01:08.121Z,100879.34
2023-04-21T04:03:36.105Z,100868.28
2023-04-21T04:06:04.237Z,100879.09
2023-04-21T04:08:32.073Z,100871.47
2023-04-21T04:10:59.823Z,100879.59
2023-04-21T04:13:29.399Z,100873.53
2023-04-21T04:15:57.905Z,100882.66
2023-04-21T04:18:25.909Z,100882.75
2023-04-21T04:20:53.595Z,100875.50
2023-04-21T04:23:21.944Z,100870.91
2023-04-21T04:25:49.715Z,100878.81
2023-04-21T04:28:17.377Z,100861.75
2023-04-21T04:30:46.484Z,100866.19
2023-04-21T04:33:14.242Z,100864.28
2023-04-21T04:35:41.919Z,100870.91
2023-04-21T04:38:09.570Z,100864.78
2023-04-21T04:40:37.290Z,100861.28
2023-04-21T04:43:05.030Z,100869.63
2023-04-21T04:45:33.170Z,100866.53
2023-04-21T04:48:02.242Z,100861.53
2023-04-21T04:50:30.044Z,100860.00
2023-04-21T04:52:57.843Z,100869.44
2023-04-21T04:55:25.648Z,100865.78
2023-04-21T04:57:53.450Z,100868.78
2023-04-21T05:00:21.571Z,100867.31
2023-04-21T05:02:49.406Z,100855.66
2023-04-21T05:05:18.619Z,100881.91
2023-04-21T05:07:46.373Z,100859.22
2023-04-21T05:10:14.168Z,100872.63
2023-04-21T05:12:41.865Z,100861.75
2023-04-21T05:15:10.964Z,100872.06
2023-04-21T05:17:38.754Z,100873.84
2023-04-21T05:20:07.285Z,100868.16
2023-04-21T05:22:39.376Z,100867.03
2023-04-21T05:25:08.098Z,100873.66
2023-04-21T05:27:35.922Z,100872.75
2023-04-21T05:30:03.716Z,100883.66
2023-04-21T05:32:31.525Z,100865.50
2023-04-21T05:34:59.691Z,100885.91
2023-04-21T05:37:27.471Z,100886.69
2023-04-21T05:39:56.649Z,100887.25
2023-04-21T05:42:24.405Z,100865.16
2023-04-21T05:44:52.158Z,100888.56
2023-04-21T05:47:19.893Z,100883.69
2023-04-21T05:49:50.395Z,100893.09
2023-04-21T05:52:18.599Z,100907.13
2023-04-21T05:54:46.302Z,100906.25
2023-04-21T05:57:16.243Z,100907.41
2023-04-21T05:59:43.958Z,100889.63
2023-04-21T06:02:11.772Z,100904.53
2023-04-21T06:04:39.834Z,100903.91
2023-04-21T06:07:08.211Z,100882.25
2023-04-21T06:09:36.274Z,100880.75
2023-04-21T06:12:04.105Z,100875.94
2023-04-21T06:14:33.249Z,100865.97
2023-04-21T06:17:01.074Z,100873.19
2023-04-21T06:19:28.876Z,100867.41
2023-04-21T06:21:57.732Z,100883.19
2023-04-21T06:24:26.161Z,100874.81
2023-04-21T06:26:54.007Z,100860.63
2023-04-21T06:29:21.823Z,100882.38
2023-04-21T06:31:50.965Z,100880.66
2023-04-21T06:34:20.248Z,100884.13
2023-04-21T06:36:48.226Z,100888.41
2023-04-21T06:39:15.962Z,100874.75
2023-04-21T06:41:43.885Z,100894.94
2023-04-21T06:44:13.959Z,100896.81
2023-04-21T06:46:41.888Z,100892.75
2023-04-21T06:49:11.114Z,100889.56
2023-04-21T06:51:38.917Z,100891.97
2023-04-21T06:54:06.998Z,100896.09
2023-04-21T06:56:34.698Z,100882.81
2023-04-21T06:59:02.430Z,100869.88
2023-04-21T07:01:30.341Z,100880.69
2023-04-21T07:03:58.109Z,100869.06
2023-04-21T07:06:27.952Z,100870.72
2023-04-21T07:08:55.639Z,100883.34
2023-04-21T07:11:23.378Z,100884.72
2023-04-21T07:13:51.100Z,100856.69
2023-04-21T07:16:18.809Z,100857.59
2023-04-21T07:18:46.656Z,100870.38
2023-04-21T07:21:14.392Z,100866.97
2023-04-21T07:23:43.582Z,100861.97
2023-04-21T07:26:11.464Z,100872.28
2023-04-21T07:28:40.699Z,100878.44
2023-04-21T07:31:08.479Z,100870.09
2023-04-21T07:33:36.635Z,100851.88
2023-04-21T07:36:04.649Z,100874.81
2023-04-21T07:38:32.406Z,100867.47
2023-04-21T07:41:01.523Z,100856.78
2023-04-21T07:43:31.023Z,100846.59
2023-04-21T07:45:58.868Z,100856.75
2023-04-21T07:48:26.704Z,100836.00
2023-04-21T07:50:54.505Z,100843.81
2023-04-21T07:53:22.487Z,100831.09
2023-04-21T07:55:50.257Z,100839.72
2023-04-21T07:58:19.307Z,100831.50
2023-04-21T08:00:47.010Z,100834.72
2023-04-21T08:03:15.021Z,100821.88
2023-04-21T08:05:43.092Z,100839.56
2023-04-21T08:08:11.332Z,100836.31
2023-04-21T08:10:39.063Z,100843.88
2023-04-21T08:13:06.844Z,100838.50
2023-04-21T08:15:36.156Z,100820.38
2023-04-21T08:18:04.018Z,100828.59
2023-04-21T08:20:31.980Z,100831.16
2023-04-21T08:22:59.710Z,100828.50
2023-04-21T08:25:27.463Z,100837.78
2023-04-21T08:27:55.246Z,100817.03
2023-04-21T08:30:23.092Z,100831.47
2023-04-21T08:32:52.247Z,100834.38
2023-04-21T08:35:20.083Z,100831.44
2023-04-21T08:37:48.576Z,100820.22
2023-04-21T08:40:16.812Z,100833.47
2023-04-21T08:42:44.549Z,100852.19
2023-04-21T08:45:12.734Z,100840.84
2023-04-21T08:47:42.082Z,100848.44
2023-04-21T08:50:14.315Z,100840.94
2023-04-21T08:52:42.050Z,100825.16
2023-04-21T08:55:11.069Z,100844.53
2023-04-21T08:57:38.743Z,100836.28
2023-04-21T09:00:08.477Z,100827.38
2023-04-21T09:03:00.253Z,100843.66
2023-04-21T09:05:31.264Z,100842.81
2023-04-21T09:08:09.263Z,100846.25
2023-04-21T09:10:44.378Z,100825.66
2023-04-21T09:13:12.083Z,100833.63
2023-04-21T09:15:41.703Z,100833.97
2023-04-21T09:18:14.426Z,100829.63
2023-04-21T09:20:44.354Z,100823.91
2023-04-21T09:23:12.530Z,100809.41
2023-04-21T09:25:41.173Z,100807.09
2023-04-21T09:28:09.288Z,100829.88
2023-04-21T09:30:37.485Z,100823.00
2023-04-21T09:33:13.348Z,100832.53
2023-04-21T09:35:49.479Z,100826.13
2023-04-21T09:38:17.565Z,100812.34
2023-04-21T09:40:45.461Z,100812.34
2023-04-21T09:43:13.149Z,100827.28
2023-04-21T09:45:41.217Z,100824.31
2023-04-21T09:48:10.648Z,100832.03
2023-04-21T09:51:21.960Z,100811.06
2023-04-21T09:53:27.930Z,100816.16
2023-04-21T09:55:57.257Z,100824.06
2023-04-21T09:58:29.118Z,100822.06
2023-04-21T10:00:58.461Z,100819.06
2023-04-21T10:03:29.239Z,100823.56
2023-04-21T10:05:57.470Z,100822.75
2023-04-21T10:08:25.199Z,100816.56
2023-04-21T10:10:54.544Z,100815.63
2023-04-21T10:13:22.585Z,100804.69
2023-04-21T10:15:50.281Z,100793.94
2023-04-21T10:18:19.272Z,100799.75
2023-04-21T10:20:54.207Z,100801.91
2023-04-21T10:23:32.983Z,100796.53
2023-04-21T10:26:06.805Z,100792.44
2023-04-21T10:28:45.581Z,100799.63
2023-04-21T10:31:32.111Z,100798.38
2023-04-21T10:34:16.417Z,100780.31
2023-04-21T10:36:50.069Z,100799.41
2023-04-21T10:39:27.789Z,100799.00
2023-04-21T10:41:59.248Z,100793.34
2023-04-21T10:44:30.019Z,100779.25
2023-04-21T10:47:00.064Z,100744.22
2023-04-21T10:49:28.989Z,100757.16
2023-04-21T10:52:07.448Z,100765.41
2023-04-21T10:54:43.514Z,100733.94
2023-04-21T10:57:14.055Z,100731.06
2023-04-21T10:59:41.943Z,100739.88
2023-04-21T11:02:12.965Z,100746.13
2023-04-21T11:04:45.287Z,100740.13
2023-04-21T11:07:14.892Z,100735.06
2023-04-21T11:09:44.526Z,100732.53
2023-04-21T11:12:15.274Z,100723.09
2023-04-21T11:14:46.323Z,100711.53
2023-04-21T11:17:14.802Z,100722.56
2023-04-21T11:19:42.939Z,100740.28
2023-04-21T11:22:10.609Z,100746.28
2023-04-21T11:24:38.375Z,100730.28
2023-04-21T11:27:09.868Z,100723.97
2023-04-21T11:29:39.268Z,100731.88
2023-04-21T11:32:08.092Z,100695.63
2023-04-21T11:34:38.130Z,100708.81
2023-04-21T11:37:06.852Z,100707.47
2023-04-21T11:39:34.665Z,100686.78
2023-04-21T11:42:02.794Z,100688.94
2023-04-21T11:44:35.008Z,100695.94
2023-04-21T11:47:13.702Z,100672.75
2023-04-21T11:49:46.321Z,100692.88
2023-04-21T11:52:20.844Z,100680.28
2023-04-21T11:54:48.888Z,100681.38
2023-04-21T11:57:19.572Z,100679.84
2023-04-21T11:59:48.265Z,100663.44
2023-04-21T12:02:25.224Z,100671.44
2023-04-21T12:05:03.932Z,100671.50
2023-04-21T12:07:32.944Z,100674.25
2023-04-21T12:10:01.656Z,100662.97
2023-04-21T12:12:31.100Z,100656.88
2023-04-21T12:14:59.257Z,100649.13
2023-04-21T12:17:36.519Z,100647.28
2023-04-21T12:20:07.317Z,100634.53
2023-04-21T12:22:35.201Z,100617.22
2023-04-21T12:25:02.964Z,100632.63
2023-04-21T12:27:30.998Z,100630.53
2023-04-21T12:29:58.720Z,100614.53
2023-04-21T12:32:27.882Z,100623.06
2023-04-21T12:34:56.189Z,100617.22
2023-04-21T12:37:23.889Z,100621.94
2023-04-21T12:39:51.578Z,100606.66
2023-04-21T12:42:19.375Z,100607.88
2023-04-21T12:44:47.051Z,100601.59
2023-04-21T12:47:14.830Z,100603.88
2023-04-21T12:49:44.066Z,100594.25
2023-04-21T12:52:11.749Z,100604.31
2023-04-21T12:54:39.547Z,100597.88
2023-04-21T12:57:08.577Z,100589.59
2023-04-21T12:59:36.269Z,100590.06
2023-04-21T13:02:04.108Z,100585.00
2023-04-21T13:04:32.525Z,100587.16
2023-04-21T13:07:01.876Z,100571.03
2023-04-21T13:09:29.900Z,100560.59
2023-04-21T13:11:57.775Z,100559.72
2023-04-21T13:14:25.608Z,100552.09
2023-04-21T13:16:54.461Z,100545.19
2023-04-21T13:19:22.208Z,100538.81
2023-04-21T13:21:51.494Z,100527.03
2023-04-21T13:24:22.696Z,100534.53
2023-04-21T13:26:50.530Z,100524.13
2023-04-21T13:29:18.304Z,100528.28
2023-04-21T13:31:45.984Z,100508.63
2023-04-21T13:34:13.670Z,100508.25
2023-04-21T13:36:41.883Z,100485.19
2023-04-21T13:39:10.469Z,100487.91
2023-04-21T13:41:39.625Z,100480.31
2023-04-21T13:44:07.582Z,100486.34
2023-04-21T13:46:35.403Z,100491.28
2023-04-21T13:49:03.450Z,100484.00
2023-04-21T13:51:32.211Z,100480.72
2023-04-21T13:54:00.073Z,100481.19
2023-04-21T13:56:27.893Z,100463.22
2023-04-21T13:58:57.095Z,100456.75
2023-04-21T14:01:24.923Z,100449.56
2023-04-21T14:03:54.047Z,100460.09
2023-04-21T14:06:22.010Z,100454.06
2023-04-21T14:08:49.733Z,100447.34
2023-04-21T14:11:17.584Z,100454.78
2023-04-21T14:14:00.868Z,100448.22
2023-04-21T14:16:34.583Z,100440.34
2023-04-21T14:19:02.396Z,100437.72
2023-04-21T14:21:31.035Z,100447.03
2023-04-21T14:23:58.990Z,100430.59
2023-04-21T14:26:26.956Z,100433.06
2023-04-21T14:28:54.603Z,100420.13
2023-04-21T14:31:22.565Z,100412.09
2023-04-21T14:33:51.739Z,100410.56
2023-04-21T14:36:19.504Z,100406.19
2023-04-21T14:38:47.527Z,100406.09
2023-04-21T14:41:15.663Z,100382.22
2023-04-21T14:43:43.490Z,100404.56
2023-04-21T14:46:11.379Z,100394.16
2023-04-21T14:48:39.562Z,100369.75
2023-04-21T14:51:10.137Z,100388.28
2023-04-21T14:53:37.886Z,100384.16
2023-04-21T14:56:06.063Z,100382.94
2023-04-21T14:58:33.973Z,100381.94
2023-04-21T15:01:01.857Z,100376.72
2023-04-21T15:03:29.938Z,100374.91
2023-04-21T15:05:57.851Z,100365.81
2023-04-21T15:08:27.700Z,100362.31
2023-04-21T15:10:56.375Z,100365.19
2023-04-21T15:13:24.441Z,100352.75
2023-04-21T15:15:52.577Z,100343.00
2023-04-21T15:18:20.912Z,100354.78
2023-04-21T15:20:49.552Z,100346.72
2023-04-21T15:23:17.580Z,100334.97
2023-04-21T15:25:46.676Z,100327.59
2023-04-21T15:28:14.422Z,100319.19
2023-04-21T15:30:42.493Z,100324.06
2023-04-21T15:33:11.598Z,100318.97
2023-04-21T15:35:39.491Z,100301.03
2023-04-21T15:38:07.336Z,100315.34
2023-04-21T15:40:37.609Z,100303.78
2023-04-21T15:43:13.102Z,100300.72
2023-04-21T15:45:42.274Z,100292.41
2023-04-21T15:48:10.086Z,100296.56
2023-04-21T15:50:37.998Z,100301.91
2023-04-21T15:53:06.217Z,100292.06
2023-04-21T15:55:34.799Z,100295.03
2023-04-21T15:58:02.615Z,100294.94
2023-04-21T16:00:31.830Z,100299.97
2023-04-21T16:02:59.735Z,100306.63
2023-04-21T16:05:29.368Z,100298.75
2023-04-21T16:07:57.199Z,100297.78
2023-04-21T16:10:24.879Z,100304.03
2023-04-21T16:12:52.719Z,100297.28
2023-04-21T16:15:24.395Z,100304.22
2023-04-21T16:17:54.295Z,100308.22
2023-04-21T16:20:22.188Z,100305.53
2023-04-21T16:22:50.348Z,100314.56
2023-04-21T16:25:19.107Z,100307.00
2023-04-21T16:27:46.945Z,100316.53
2023-04-21T16:30:14.792Z,100331.72
2023-04-21T16:32:42.541Z,100330.03
2023-04-21T16:35:11.927Z,100332.03
2023-04-21T16:37:40.547Z,100317.78
2023-04-21T16:40:09.801Z,100309.22
2023-04-21T16:42:37.847Z,100299.56
2023-04-21T16:45:06.626Z,100290.94
2023-04-21T16:47:40.426Z,100290.44
2023-04-21T16:50:11.597Z,100290.72
2023-04-21T16:52:39.364Z,100296.72
2023-04-21T16:55:08.202Z,100291.56
2023-04-21T16:57:36.168Z,100292.09
2023-04-21T17:00:07.004Z,100282.16
2023-04-21T17:02:35.189Z,100284.06
2023-04-21T17:05:04.028Z,100285.28
2023-04-21T17:07:33.149Z,100285.19
2023-04-21T17:10:00.824Z,100274.38
2023-04-21T17:12:28.676Z,100268.75
2023-04-21T17:14:56.472Z,100270.16
2023-04-21T17:17:24.356Z,100272.06
2023-04-21T17:19:53.735Z,100272.44
2023-04-21T17:22:21.471Z,100271.81
2023-04-21T17:24:53.647Z,100270.34
2023-04-21T17:27:22.083Z,100263.25
2023-04-21T17:29:49.867Z,100262.34
2023-04-21T17:32:17.713Z,100249.97
2023-04-21T17:34:45.620Z,100250.81
2023-04-21T17:37:13.359Z,100254.81
2023-04-21T17:39:41.138Z,100256.13
2023-04-21T17:42:10.233Z,100245.63
2023-04-21T17:44:39.971Z,100252.25
2023-04-21T17:47:08.929Z,100251.50
2023-04-21T17:49:36.728Z,100245.25
2023-04-21T17:52:04.693Z,100245.84
2023-04-21T17:54:32.450Z,100249.84
2023-04-21T17:57:01.579Z,100241.44
2023-04-21T17:59:30.705Z,100227.81
2023-04-21T18:01:59.137Z,100213.63
2023-04-21T18:04:29.846Z,100213.59
2023-04-21T18:06:58.914Z,100227.41
2023-04-21T18:09:26.798Z,100225.88
2023-04-21T18:11:54.555Z,100218.78
2023-04-21T18:14:22.766Z,100220.91
2023-04-21T18:16:51.879Z,100217.66
2023-04-21T18:19:19.595Z,100209.25
2023-04-21T18:21:47.310Z,100211.22
2023-04-21T18:24:15.008Z,100226.03
2023-04-21T18:26:42.845Z,100224.88
2023-04-21T18:29:10.647Z,100224.72
2023-04-21T18:31:39.324Z,100225.06
2023-04-21T18:34:09.113Z,100224.03
2023-04-21T18:36:38.463Z,100234.81
2023-04-21T18:39:06.547Z,100231.56
2023-04-21T18:41:34.242Z,100246.19
2023-04-21T18:44:01.971Z,100253.59
2023-04-21T18:46:29.780Z,100257.66
2023-04-21T18:48:57.487Z,100264.25
2023-04-21T18:51:31.021Z,100271.84
2023-04-21T18:53:58.805Z,100258.13
2023-04-21T18:56:26.581Z,100265.25
2023-04-21T18:58:54.470Z,100273.47
2023-04-21T19:01:22.260Z,100281.59
2023-04-21T19:03:50.274Z,100272.88
2023-04-21T19:06:18.239Z,100278.91
2023-04-21T19:08:47.440Z,100301.66
2023-04-21T19:11:15.851Z,100318.25
2023-04-21T19:13:43.728Z,100340.66
2023-04-21T19:16:11.659Z,100367.91
2023-04-21T19:18:39.457Z,100339.16
2023-04-21T19:21:10.291Z,100328.19
2023-04-21T19:23:38.081Z,100321.38
2023-04-21T19:26:08.664Z,100334.72
2023-04-21T19:28:36.655Z,100332.84
2023-04-21T19:31:04.553Z,100329.22
2023-04-21T19:33:32.297Z,100329.75
2023-04-21T19:36:00.097Z,100286.53
2023-04-21T19:38:28.204Z,100261.13
2023-04-21T19:40:56.981Z,100253.75
2023-04-21T19:43:26.143Z,100250.75
2023-04-21T19:45:53.959Z,100251.69
2023-04-21T19:48:21.974Z,100253.22
2023-04-21T19:50:49.797Z,100261.66
2023-04-21T19:53:18.677Z,100267.44
2023-04-21T19:55:46.848Z,100230.78
2023-04-21T19:58:19.802Z,100209.56
2023-04-21T20:00:57.548Z,100209.06
2023-04-21T20:03:25.368Z,100206.03
2023-04-21T20:05:53.165Z,100213.53
2023-04-21T20:08:21.268Z,100192.66
2023-04-21T20:10:48.959Z,100201.13
2023-04-21T20:13:16.723Z,100197.53
2023-04-21T20:15:44.521Z,100197.63
2023-04-21T20:18:13.781Z,100198.03
2023-04-21T20:20:41.582Z,100183.59
2023-04-21T20:23:09.385Z,100200.69
2023-04-21T20:25:37.211Z,100269.41
2023-04-21T20:28:04.903Z,100306.69
2023-04-21T20:30:32.692Z,100313.44
2023-04-21T20:33:00.544Z,100315.63
2023-04-21T20:35:30.561Z,100316.69
2023-04-21T20:37:58.496Z,100313.59
2023-04-21T20:40:26.284Z,100303.00
2023-04-21T20:42:53.955Z,100287.13
2023-04-21T20:45:22.488Z,100271.13
2023-04-21T20:47:50.214Z,100237.66
2023-04-21T20:50:18.418Z,100223.31
2023-04-21T20:52:48.068Z,100213.78
2023-04-21T20:55:15.958Z,100214.44
2023-04-21T20:57:43.815Z,100226.88
2023-04-21T21:00:12.306Z,100238.78
2023-04-21T21:02:41.128Z,100212.00
2023-04-21T21:05:09.516Z,100183.38
2023-04-21T21:07:37.261Z,100201.69
2023-04-21T21:10:08.134Z,100209.19
2023-04-21T21:12:35.898Z,100191.59
2023-04-21T21:15:04.189Z,100202.56
2023-04-21T21:17:31.950Z,100219.09
2023-04-21T21:19:59.797Z,100231.28
2023-04-21T21:22:28.174Z,100232.00
2023-04-21T21:24:55.839Z,100222.00
2023-04-21T21:27:25.041Z,100203.75
2023-04-21T21:29:52.697Z,100174.78
2023-04-21T21:32:20.633Z,100169.03
2023-04-21T21:34:49.622Z,100190.22
2023-04-21T21:37:17.347Z,100178.66
2023-04-21T21:39:45.095Z,100185.88
2023-04-21T21:42:12.772Z,100177.97
2023-04-21T21:44:41.782Z,100175.28
2023-04-21T21:47:09.477Z,100185.97
2023-04-21T21:49:38.414Z,100195.09
2023-04-21T21:52:06.244Z,100204.03
2023-04-21T21:54:34.001Z,100236.75
2023-04-21T21:57:02.006Z,100297.59
2023-04-21T21:59:29.796Z,100345.66
2023-04-21T22:01:59.041Z,100358.81
2023-04-21T22:04:26.916Z,100360.06
2023-04-21T22:06:54.669Z,100390.59
2023-04-21T22:09:22.423Z,100388.53
2023-04-21T22:11:50.446Z,100420.00
2023-04-21T22:14:23.259Z,100409.34
2023-04-21T22:16:51.294Z,100344.84
2023-04-21T22:19:20.455Z,100373.59
2023-04-21T22:21:48.382Z,100363.22
2023-04-21T22:24:16.244Z,100345.78
2023-04-21T22:26:44.138Z,100321.31
2023-04-21T22:29:11.924Z,100331.69
2023-04-21T22:31:39.751Z,100341.78
2023-04-21T22:34:07.467Z,100333.81
2023-04-21T22:36:36.535Z,100300.13
2023-04-21T22:39:04.901Z,100281.41
2023-04-21T22:41:32.899Z,100195.31
2023-04-21T22:44:00.578Z,100196.16
2023-04-21T22:46:31.947Z,100285.25
2023-04-21T22:48:59.996Z,100312.41
2023-04-21T22:51:29.782Z,100299.22
2023-04-21T22:53:59.328Z,100294.13
2023-04-21T22:56:27.114Z,100279.66
2023-04-21T22:58:54.787Z,100278.50
2023-04-21T23:01:22.743Z,100279.13
2023-04-21T23:03:50.714Z,100277.56
2023-04-21T23:06:18.516Z,100278.53
2023-04-21T23:08:46.172Z,100280.56
2023-04-21T23:11:15.435Z,100272.50
2023-04-21T23:13:43.114Z,100253.38
2023-04-21T23:16:11.229Z,100252.41
2023-04-21T23:18:39.034Z,100276.97
2023-04-21T23:21:06.920Z,100285.59
2023-04-21T23:23:34.686Z,100295.44
2023-04-21T23:26:02.428Z,100304.78
2023-04-21T23:28:31.653Z,100298.88
2023-04-21T23:30:59.377Z,100294.19
2023-04-21T23:33:27.062Z,100277.53
2023-04-21T23:35:56.161Z,100283.28
2023-04-21T23:38:23.958Z,100288.50
2023-04-21T23:40:51.759Z,100275.34
2023-04-21T23:43:19.601Z,100274.09
2023-04-21T23:45:48.740Z,100277.91
2023-04-21T23:48:16.501Z,100270.09
2023-04-21T23:50:44.642Z,100279.59
2023-04-21T23:53:12.370Z,100267.13
2023-04-21T23:55:40.216Z,100267.34
2023-04-21T23:58:08.021Z,100271.16
